Time;durP1;ratioP1;P1;durP2;ratioP2;P2;SDS_P1;SDS_P2;PMS_P1;PMS_P2;Temp;Humidity;BMP_temperature;BMP_pressure;BME280_temperature;BME280_humidity;BME280_pressure;Samples;Min_cycle;Max_cycle;Signal;HPM_P1;HPM_P2
2023/12/13 00:02:03;;;;;;;;;;;5.60;88.30;;;;;;4994194;28;92111;-46
2023/12/13 00:04:29;;;;;;;;;;;5.60;88.40;;;;;;4993822;28;92866;-45
2023/12/13 00:06:54;;;;;;;;;;;5.60;88.80;;;;;;5000129;28;93394;-46
2023/12/13 00:09:20;;;;;;;;;;;5.60;88.40;;;;;;5001801;28;92298;-45
2023/12/13 00:11:46;;;;;;;;;;;5.60;88.40;;;;;;4994362;28;91996;-45
2023/12/13 00:14:11;;;;;;;;;;;5.50;88.50;;;;;;4997559;28;92426;-45
2023/12/13 00:16:40;;;;;;;;;;;5.50;88.50;;;;;;4995933;28;92524;-46
2023/12/13 00:19:06;;;;;;;;;;;5.50;88.10;;;;;;4996926;28;92467;-45
2023/12/13 00:21:31;;;;;;;;;;;5.50;88.30;;;;;;4995273;28;92048;-47
2023/12/13 00:23:57;;;;;;;;;;;5.60;88.10;;;;;;5000903;28;91519;-47
2023/12/13 00:26:23;;;;;;;;;;;5.50;88.20;;;;;;4993233;28;92511;-45
2023/12/13 00:28:49;;;;;;;;;;;5.60;88.10;;;;;;4996960;28;92072;-44
2023/12/13 00:31:15;;;;;;;;;;;5.50;88.00;;;;;;4995643;28;93016;-46
2023/12/13 00:33:40;;;;;;;;;;;5.50;88.20;;;;;;4999252;28;92130;-45
2023/12/13 00:36:06;;;;;;;;;;;5.50;88.30;;;;;;5000464;28;92079;-45
2023/12/13 00:38:32;;;;;;;;;;;5.50;88.30;;;;;;4995373;28;92542;-45
2023/12/13 00:40:58;;;;;;;;;;;5.50;88.10;;;;;;4997175;28;91999;-45
2023/12/13 00:43:23;;;;;;;;;;;5.50;88.20;;;;;;4993381;28;91976;-46
2023/12/13 00:45:49;;;;;;;;;;;5.50;88.20;;;;;;4996680;28;92468;-46
2023/12/13 00:48:15;;;;;;;;;;;5.50;88.20;;;;;;4999074;28;91574;-45
2023/12/13 00:50:40;;;;;;;;;;;5.50;88.20;;;;;;4995451;28;92003;-46
2023/12/13 00:53:06;;;;;;;;;;;5.50;88.20;;;;;;4991600;28;91893;-45
2023/12/13 00:55:32;;;;;;;;;;;5.50;88.10;;;;;;4996135;28;92988;-45
2023/12/13 00:57:58;;;;;;;;;;;5.50;88.20;;;;;;5000003;28;92797;-45
2023/12/13 01:00:23;;;;;;;;;;;5.50;88.10;;;;;;4996396;28;91932;-45
2023/12/13 01:02:49;;;;;;;;;;;5.50;88.10;;;;;;4995833;28;92858;-44
2023/12/13 01:05:14;;;;;;;;;;;5.40;88.20;;;;;;4994883;28;92325;-45
2023/12/13 01:07:40;;;;;;;;;;;5.40;88.30;;;;;;4993607;28;92019;-46
2023/12/13 01:10:06;;;;;;;;;;;5.40;88.50;;;;;;4999095;28;92858;-47
2023/12/13 01:12:31;;;;;;;;;;;5.40;88.50;;;;;;4996433;28;91856;-46
2023/12/13 01:14:57;;;;;;;;;;;5.40;88.30;;;;;;4992428;28;92047;-45
2023/12/13 01:17:23;;;;;;;;;;;5.40;88.40;;;;;;4996502;28;93112;-45
2023/12/13 01:19:50;;;;;;;;;;;5.40;88.30;;;;;;4996319;28;94462;-45
2023/12/13 01:22:15;;;;;;;;;;;5.40;88.30;;;;;;4996994;28;93955;-45
2023/12/13 01:24:41;;;;;;;;;;;5.40;88.10;;;;;;4991361;28;92533;-45
2023/12/13 01:27:06;;;;;;;;;;;5.40;88.20;;;;;;4992718;28;92123;-45
2023/12/13 01:29:32;;;;;;;;;;;5.40;88.40;;;;;;4996730;28;91912;-45
2023/12/13 01:31:57;;;;;;;;;;;5.40;88.30;;;;;;4995420;28;92487;-46
2023/12/13 01:34:23;;;;;;;;;;;5.40;88.20;;;;;;4996951;28;93605;-45
2023/12/13 01:36:49;;;;;;;;;;;5.40;88.20;;;;;;4997464;28;91965;-45
2023/12/13 01:39:15;;;;;;;;;;;5.40;88.30;;;;;;4999055;28;94230;-46
2023/12/13 01:41:41;;;;;;;;;;;5.40;88.20;;;;;;4991698;28;92769;-47
2023/12/13 01:44:07;;;;;;;;;;;5.40;88.20;;;;;;4994188;28;94412;-46
2023/12/13 01:46:33;;;;;;;;;;;5.40;88.30;;;;;;4995800;28;92043;-46
2023/12/13 01:48:59;;;;;;;;;;;5.40;88.40;;;;;;4990346;28;92114;-46
2023/12/13 01:51:24;;;;;;;;;;;5.40;88.30;;;;;;4989219;28;92459;-45
2023/12/13 01:53:50;;;;;;;;;;;5.40;88.20;;;;;;4994022;28;91990;-46
2023/12/13 01:56:16;;;;;;;;;;;5.40;88.20;;;;;;4996971;28;93017;-45
2023/12/13 01:58:41;;;;;;;;;;;5.40;88.30;;;;;;4993041;28;92546;-45
2023/12/13 02:01:08;;;;;;;;;;;5.40;88.20;;;;;;5000465;28;92096;-45
2023/12/13 02:03:34;;;;;;;;;;;5.40;88.30;;;;;;4997027;28;93589;-45
2023/12/13 02:06:02;;;;;;;;;;;5.40;88.40;;;;;;4995725;28;92011;-46
2023/12/13 02:08:28;;;;;;;;;;;5.40;88.30;;;;;;4985641;28;93692;-46
2023/12/13 02:10:55;;;;;;;;;;;5.40;88.40;;;;;;4994916;28;92596;-46
2023/12/13 02:13:22;;;;;;;;;;;5.40;88.40;;;;;;4994958;28;92080;-45
2023/12/13 02:15:47;;;;;;;;;;;5.40;88.30;;;;;;4994783;28;91978;-45
2023/12/13 02:18:16;;;;;;;;;;;5.40;88.50;;;;;;4992255;28;93418;-46
2023/12/13 02:20:42;;;;;;;;;;;5.40;88.50;;;;;;4993335;28;92024;-47
2023/12/13 02:23:07;;;;;;;;;;;5.40;88.50;;;;;;4999568;28;92689;-44
2023/12/13 02:25:45;;;;;;;;;;;5.40;88.70;;;;;;4999242;28;91323;-45
2023/12/13 02:28:10;;;;;;;;;;;5.40;88.60;;;;;;4993698;28;92037;-45
2023/12/13 02:30:36;;;;;;;;;;;5.40;88.50;;;;;;4993982;28;92465;-46
2023/12/13 02:33:01;;;;;;;;;;;5.40;88.70;;;;;;4992582;28;93269;-45
2023/12/13 02:35:27;;;;;;;;;;;5.40;88.70;;;;;;4993780;28;92471;-44
2023/12/13 02:37:52;;;;;;;;;;;5.40;88.60;;;;;;4998383;28;92602;-46
2023/12/13 02:40:19;;;;;;;;;;;5.40;88.70;;;;;;4992923;28;92525;-45
2023/12/13 02:42:45;;;;;;;;;;;5.40;88.70;;;;;;4995789;28;92935;-45
2023/12/13 02:45:11;;;;;;;;;;;5.40;88.60;;;;;;4994392;28;92469;-45
2023/12/13 02:47:41;;;;;;;;;;;5.40;88.60;;;;;;4995603;28;92985;-46
2023/12/13 02:50:10;;;;;;;;;;;5.40;88.70;;;;;;4993831;28;92886;-45
2023/12/13 02:52:36;;;;;;;;;;;5.40;88.90;;;;;;4998001;28;92069;-45
2023/12/13 02:55:02;;;;;;;;;;;5.40;88.80;;;;;;4992144;28;92072;-46
2023/12/13 02:57:27;;;;;;;;;;;5.40;88.60;;;;;;4991510;28;94594;-45
2023/12/13 02:59:53;;;;;;;;;;;5.40;88.70;;;;;;4990437;28;92061;-46
2023/12/13 03:02:19;;;;;;;;;;;5.40;88.90;;;;;;4991160;28;92047;-46
2023/12/13 03:04:44;;;;;;;;;;;5.40;89.00;;;;;;4992900;28;92983;-45
2023/12/13 03:07:10;;;;;;;;;;;5.40;88.70;;;;;;4998488;28;92111;-45
2023/12/13 03:09:35;;;;;;;;;;;5.40;88.70;;;;;;4995675;28;92577;-45
2023/12/13 03:12:01;;;;;;;;;;;5.40;88.90;;;;;;4995387;28;92040;-45
2023/12/13 03:14:26;;;;;;;;;;;5.40;88.80;;;;;;4990467;28;91841;-45
2023/12/13 03:16:52;;;;;;;;;;;5.40;89.40;;;;;;4995673;28;91941;-44
2023/12/13 03:19:17;;;;;;;;;;;5.40;88.80;;;;;;4999568;28;92021;-45
2023/12/13 03:21:43;;;;;;;;;;;5.40;89.00;;;;;;4997236;28;93019;-46
2023/12/13 03:24:08;;;;;;;;;;;5.40;89.00;;;;;;4994151;28;92630;-45
2023/12/13 03:26:34;;;;;;;;;;;5.40;89.20;;;;;;5000701;28;92085;-45
2023/12/13 03:29:00;;;;;;;;;;;5.40;89.00;;;;;;4995782;28;91974;-45
2023/12/13 03:31:25;;;;;;;;;;;5.40;88.80;;;;;;4998371;28;92057;-44
2023/12/13 03:33:51;;;;;;;;;;;5.40;88.90;;;;;;4996890;28;92025;-45
2023/12/13 03:36:16;;;;;;;;;;;5.40;88.80;;;;;;4994256;28;92572;-45
2023/12/13 03:38:43;;;;;;;;;;;5.40;88.90;;;;;;4994806;28;91251;-46
2023/12/13 03:41:09;;;;;;;;;;;5.40;89.10;;;;;;4994228;28;92141;-45
2023/12/13 03:43:35;;;;;;;;;;;5.40;89.00;;;;;;4997497;28;93336;-45
2023/12/13 03:46:00;;;;;;;;;;;5.40;89.00;;;;;;4997263;28;93046;-45
2023/12/13 03:48:26;;;;;;;;;;;5.40;89.00;;;;;;4997126;28;92706;-44
2023/12/13 03:50:51;;;;;;;;;;;5.40;89.20;;;;;;4998580;28;92118;-46
2023/12/13 03:53:17;;;;;;;;;;;5.40;89.40;;;;;;5001516;28;92212;-45
2023/12/13 03:55:42;;;;;;;;;;;5.40;89.20;;;;;;4997287;28;92559;-46
2023/12/13 03:58:08;;;;;;;;;;;5.40;89.20;;;;;;4994623;28;92052;-46
2023/12/13 04:00:33;;;;;;;;;;;5.40;89.20;;;;;;4998509;28;91883;-46
2023/12/13 04:02:59;;;;;;;;;;;5.40;89.20;;;;;;4996556;28;91758;-46
2023/12/13 04:05:24;;;;;;;;;;;5.40;89.30;;;;;;4998283;28;92090;-46
2023/12/13 04:07:50;;;;;;;;;;;5.40;88.80;;;;;;4994152;28;92590;-44
2023/12/13 04:10:17;;;;;;;;;;;5.40;89.30;;;;;;5005433;28;93861;-45
2023/12/13 04:12:43;;;;;;;;;;;5.40;89.00;;;;;;4995249;28;92698;-46
2023/12/13 04:15:08;;;;;;;;;;;5.40;89.20;;;;;;4996471;28;92473;-47
2023/12/13 04:17:34;;;;;;;;;;;5.40;89.20;;;;;;4997394;28;92046;-45
2023/12/13 04:20:00;;;;;;;;;;;5.40;89.30;;;;;;4994618;28;92226;-46
2023/12/13 04:22:25;;;;;;;;;;;5.40;89.40;;;;;;5000814;28;92044;-46
2023/12/13 04:24:51;;;;;;;;;;;5.40;89.20;;;;;;4993690;28;92146;-45
2023/12/13 04:27:16;;;;;;;;;;;5.40;89.10;;;;;;4993909;28;91940;-45
2023/12/13 04:29:43;;;;;;;;;;;5.40;89.20;;;;;;4998611;28;92420;-45
2023/12/13 04:32:09;;;;;;;;;;;5.40;89.20;;;;;;5000660;28;92309;-45
2023/12/13 04:34:34;;;;;;;;;;;5.40;89.20;;;;;;4994817;28;94393;-45
2023/12/13 04:37:00;;;;;;;;;;;5.40;89.10;;;;;;4995147;28;92068;-46
2023/12/13 04:39:25;;;;;;;;;;;5.40;89.20;;;;;;4995501;28;92258;-45
2023/12/13 04:41:51;;;;;;;;;;;5.40;89.00;;;;;;4994714;28;92457;-45
2023/12/13 04:44:17;;;;;;;;;;;5.40;88.90;;;;;;4996093;28;92083;-46
2023/12/13 04:46:42;;;;;;;;;;;5.40;88.90;;;;;;4994624;28;92073;-46
2023/12/13 04:49:08;;;;;;;;;;;5.40;88.90;;;;;;4996177;28;92418;-45
2023/12/13 04:51:34;;;;;;;;;;;5.40;88.90;;;;;;4993531;28;91338;-44
2023/12/13 04:53:59;;;;;;;;;;;5.40;88.70;;;;;;4999341;28;92091;-46
2023/12/13 04:56:25;;;;;;;;;;;5.40;88.70;;;;;;4996726;28;92197;-46
2023/12/13 04:58:50;;;;;;;;;;;5.40;88.70;;;;;;4992443;28;93143;-45
2023/12/13 05:01:16;;;;;;;;;;;5.40;88.70;;;;;;4996235;28;92555;-45
2023/12/13 05:03:42;;;;;;;;;;;5.40;88.60;;;;;;4997651;28;92046;-46
2023/12/13 05:06:07;;;;;;;;;;;5.40;88.70;;;;;;4999005;28;92893;-45
2023/12/13 05:08:33;;;;;;;;;;;5.40;88.60;;;;;;4992242;28;93749;-45
2023/12/13 05:10:59;;;;;;;;;;;5.40;88.70;;;;;;4993581;28;92092;-45
2023/12/13 05:13:27;;;;;;;;;;;5.40;88.60;;;;;;4995064;28;92041;-45
2023/12/13 05:15:53;;;;;;;;;;;5.40;88.70;;;;;;5000997;28;91710;-45
2023/12/13 05:18:18;;;;;;;;;;;5.40;88.70;;;;;;4993082;28;92158;-45
2023/12/13 05:20:45;;;;;;;;;;;5.40;88.80;;;;;;4995126;28;92275;-45
2023/12/13 05:23:10;;;;;;;;;;;5.40;88.80;;;;;;4996625;28;93767;-44
2023/12/13 05:25:38;;;;;;;;;;;5.40;88.70;;;;;;4994871;28;92926;-45
2023/12/13 05:28:04;;;;;;;;;;;5.40;88.80;;;;;;4995821;28;93641;-45
2023/12/13 05:30:29;;;;;;;;;;;5.40;88.70;;;;;;4993644;28;92028;-45
2023/12/13 05:32:56;;;;;;;;;;;5.40;88.80;;;;;;5023789;28;94416;-45
2023/12/13 05:35:21;;;;;;;;;;;5.40;88.80;;;;;;4993438;28;92668;-46
2023/12/13 05:37:47;;;;;;;;;;;5.50;89.50;;;;;;4999582;28;92695;-46
2023/12/13 05:40:13;;;;;;;;;;;5.40;88.90;;;;;;4994204;28;92834;-45
2023/12/13 05:42:39;;;;;;;;;;;5.40;89.00;;;;;;4993486;28;92067;-45
2023/12/13 05:45:04;;;;;;;;;;;5.40;89.00;;;;;;4993792;28;92747;-46
2023/12/13 05:47:30;;;;;;;;;;;5.40;89.10;;;;;;4993921;28;94595;-45
2023/12/13 05:49:56;;;;;;;;;;;5.40;89.00;;;;;;4994494;28;92187;-45
2023/12/13 05:52:22;;;;;;;;;;;5.50;89.20;;;;;;4996589;28;92951;-47
2023/12/13 05:54:48;;;;;;;;;;;5.40;89.10;;;;;;4995311;28;91968;-45
2023/12/13 05:57:13;;;;;;;;;;;5.50;89.10;;;;;;4998821;28;92149;-46
2023/12/13 05:59:39;;;;;;;;;;;5.50;89.20;;;;;;4992224;28;93535;-45
2023/12/13 06:02:04;;;;;;;;;;;5.50;89.10;;;;;;4995598;28;93224;-45
2023/12/13 06:04:30;;;;;;;;;;;5.50;89.30;;;;;;4998349;28;93056;-45
2023/12/13 06:06:56;;;;;;;;;;;5.50;89.10;;;;;;4991783;28;92627;-45
2023/12/13 06:09:21;;;;;;;;;;;5.50;89.20;;;;;;4992907;28;92156;-46
2023/12/13 06:11:47;;;;;;;;;;;5.50;89.20;;;;;;4992739;28;93353;-46
2023/12/13 06:14:12;;;;;;;;;;;5.50;89.10;;;;;;4992226;28;93601;-45
2023/12/13 06:16:38;;;;;;;;;;;5.50;89.20;;;;;;4993866;28;92125;-45
2023/12/13 06:19:04;;;;;;;;;;;5.50;89.50;;;;;;4997790;28;92074;-45
2023/12/13 06:21:31;;;;;;;;;;;5.50;89.50;;;;;;4993621;28;92179;-46
2023/12/13 06:23:56;;;;;;;;;;;5.50;89.50;;;;;;4990227;28;92884;-45
2023/12/13 06:26:22;;;;;;;;;;;5.50;89.50;;;;;;4997605;28;92416;-45
2023/12/13 06:28:47;;;;;;;;;;;5.50;89.30;;;;;;4998104;28;91420;-45
2023/12/13 06:31:13;;;;;;;;;;;5.50;89.30;;;;;;4995187;28;92810;-45
2023/12/13 06:33:38;;;;;;;;;;;5.50;89.20;;;;;;4990196;28;92594;-45
2023/12/13 06:36:04;;;;;;;;;;;5.50;89.40;;;;;;4991528;28;93226;-46
2023/12/13 06:38:30;;;;;;;;;;;5.50;89.50;;;;;;4997833;28;93757;-46
2023/12/13 06:40:55;;;;;;;;;;;5.50;89.50;;;;;;4997097;28;93535;-45
2023/12/13 06:43:21;;;;;;;;;;;5.50;89.50;;;;;;4997436;28;92254;-45
2023/12/13 06:45:46;;;;;;;;;;;5.50;89.60;;;;;;4991235;28;92271;-45
2023/12/13 06:48:12;;;;;;;;;;;5.50;89.70;;;;;;4994509;28;92121;-45
2023/12/13 06:50:37;;;;;;;;;;;5.50;89.50;;;;;;4996656;28;93645;-47
2023/12/13 06:53:03;;;;;;;;;;;5.50;89.50;;;;;;4994845;28;91755;-46
2023/12/13 06:55:29;;;;;;;;;;;5.50;89.60;;;;;;4997597;28;92436;-45
2023/12/13 06:57:55;;;;;;;;;;;5.50;89.50;;;;;;4992385;28;92266;-45
2023/12/13 07:00:21;;;;;;;;;;;5.50;89.70;;;;;;4990368;28;93523;-46
2023/12/13 07:02:47;;;;;;;;;;;5.50;89.70;;;;;;4992283;28;92046;-45
2023/12/13 07:05:13;;;;;;;;;;;5.50;89.60;;;;;;4998419;28;93264;-46
2023/12/13 07:07:38;;;;;;;;;;;5.50;90.10;;;;;;4995698;28;92543;-47
2023/12/13 07:10:04;;;;;;;;;;;5.50;89.70;;;;;;4991856;28;93037;-45
2023/12/13 07:12:29;;;;;;;;;;;5.50;89.70;;;;;;4991599;28;92405;-45
2023/12/13 07:14:56;;;;;;;;;;;5.50;89.80;;;;;;4986953;28;92159;-45
2023/12/13 07:17:22;;;;;;;;;;;5.50;89.90;;;;;;4992660;28;93077;-45
2023/12/13 07:19:48;;;;;;;;;;;5.50;89.80;;;;;;4993499;28;92613;-45
2023/12/13 07:22:13;;;;;;;;;;;5.60;89.90;;;;;;4990199;28;92016;-46
2023/12/13 07:24:39;;;;;;;;;;;5.50;89.90;;;;;;4996707;28;92976;-45
2023/12/13 07:27:05;;;;;;;;;;;5.50;89.80;;;;;;4995143;28;92115;-45
2023/12/13 07:29:32;;;;;;;;;;;5.60;89.70;;;;;;4991784;28;92111;-45
2023/12/13 07:31:58;;;;;;;;;;;5.60;89.80;;;;;;4993936;28;93606;-45
2023/12/13 07:34:23;;;;;;;;;;;5.60;89.80;;;;;;4992319;28;92013;-45
2023/12/13 07:36:49;;;;;;;;;;;5.60;89.80;;;;;;4992609;28;92632;-46
2023/12/13 07:39:15;;;;;;;;;;;5.60;89.90;;;;;;4989553;28;92425;-45
2023/12/13 07:41:41;;;;;;;;;;;5.60;89.90;;;;;;4996307;28;91708;-44
2023/12/13 07:44:07;;;;;;;;;;;5.60;89.80;;;;;;4994176;28;92149;-45
2023/12/13 07:46:33;;;;;;;;;;;5.60;89.90;;;;;;4990584;28;92228;-46
2023/12/13 07:49:03;;;;;;;;;;;5.60;89.70;;;;;;4987848;28;93120;-45
2023/12/13 07:51:32;;;;;;;;;;;5.70;90.00;;;;;;4993008;28;93342;-45
2023/12/13 07:53:59;;;;;;;;;;;5.60;89.90;;;;;;4991046;28;92155;-45
2023/12/13 07:56:25;;;;;;;;;;;5.60;90.00;;;;;;4994179;28;92935;-45
2023/12/13 07:58:51;;;;;;;;;;;5.60;90.00;;;;;;4993672;28;93700;-45
2023/12/13 08:01:17;;;;;;;;;;;5.60;90.10;;;;;;4994125;28;92072;-45
2023/12/13 08:03:45;;;;;;;;;;;5.60;90.00;;;;;;4994197;28;92151;-44
2023/12/13 08:06:14;;;;;;;;;;;5.60;90.10;;;;;;4998765;28;91725;-45
2023/12/13 08:08:41;;;;;;;;;;;5.70;90.10;;;;;;4994476;28;92210;-45
2023/12/13 08:11:06;;;;;;;;;;;5.60;90.10;;;;;;4996722;28;93455;-50
2023/12/13 08:13:33;;;;;;;;;;;5.70;90.10;;;;;;4994478;28;93031;-48
2023/12/13 08:15:58;;;;;;;;;;;5.70;90.10;;;;;;5004493;28;95425;-46
2023/12/13 08:18:24;;;;;;;;;;;5.70;90.10;;;;;;4996587;28;93076;-47
2023/12/13 08:20:49;;;;;;;;;;;5.70;90.10;;;;;;4991719;28;92067;-47
2023/12/13 08:23:15;;;;;;;;;;;5.70;90.10;;;;;;5000543;28;92677;-46
2023/12/13 08:25:41;;;;;;;;;;;5.70;90.10;;;;;;4993910;28;93751;-46
2023/12/13 08:28:08;;;;;;;;;;;5.70;90.00;;;;;;5000311;28;92156;-45
2023/12/13 08:30:34;;;;;;;;;;;5.70;90.10;;;;;;4996067;28;92650;-45
2023/12/13 08:32:59;;;;;;;;;;;5.70;90.20;;;;;;4998681;28;92692;-45
2023/12/13 08:35:26;;;;;;;;;;;5.70;90.20;;;;;;4997751;28;91886;-46
2023/12/13 08:37:52;;;;;;;;;;;5.70;90.10;;;;;;4997342;28;94470;-45
2023/12/13 08:40:17;;;;;;;;;;;5.70;90.30;;;;;;4994379;28;92017;-46
2023/12/13 08:42:43;;;;;;;;;;;5.70;90.30;;;;;;4998258;28;92787;-45
2023/12/13 08:45:10;;;;;;;;;;;5.70;90.30;;;;;;4999905;28;93708;-45
2023/12/13 08:47:36;;;;;;;;;;;5.70;90.30;;;;;;4998699;28;92214;-46
2023/12/13 08:50:01;;;;;;;;;;;5.70;90.40;;;;;;4997392;28;92202;-44
2023/12/13 08:52:27;;;;;;;;;;;5.70;90.40;;;;;;4998995;28;92146;-45
2023/12/13 08:54:52;;;;;;;;;;;5.80;90.30;;;;;;4991716;28;91840;-46
2023/12/13 08:57:18;;;;;;;;;;;5.80;90.30;;;;;;4997891;28;92965;-46
2023/12/13 08:59:43;;;;;;;;;;;5.80;90.40;;;;;;4995655;28;92903;-45
2023/12/13 09:02:09;;;;;;;;;;;5.80;90.40;;;;;;4989901;28;92881;-45
2023/12/13 09:04:34;;;;;;;;;;;5.80;90.40;;;;;;4994510;28;92458;-45
2023/12/13 09:07:00;;;;;;;;;;;5.80;90.30;;;;;;4995589;28;92278;-45
2023/12/13 09:09:26;;;;;;;;;;;5.80;90.40;;;;;;4997618;28;92886;-46
2023/12/13 09:11:51;;;;;;;;;;;5.80;90.30;;;;;;4998590;28;92617;-46
2023/12/13 09:14:17;;;;;;;;;;;5.80;90.40;;;;;;4994793;28;92065;-44
2023/12/13 09:16:42;;;;;;;;;;;5.80;90.30;;;;;;4997801;28;92601;-45
2023/12/13 09:19:08;;;;;;;;;;;5.80;90.30;;;;;;4990189;28;92109;-45
2023/12/13 09:21:33;;;;;;;;;;;5.80;90.40;;;;;;4993040;28;92006;-46
2023/12/13 09:23:59;;;;;;;;;;;5.80;90.40;;;;;;4999653;28;92540;-45
2023/12/13 09:26:25;;;;;;;;;;;5.90;90.30;;;;;;4992769;28;93013;-45
2023/12/13 09:28:53;;;;;;;;;;;5.80;90.40;;;;;;4998188;28;94046;-47
2023/12/13 09:31:18;;;;;;;;;;;5.80;90.40;;;;;;4992766;28;92705;-46
2023/12/13 09:33:44;;;;;;;;;;;5.80;90.40;;;;;;5003823;28;92273;-45
2023/12/13 09:36:09;;;;;;;;;;;5.90;90.40;;;;;;4996349;28;93081;-47
2023/12/13 09:38:35;;;;;;;;;;;5.90;90.50;;;;;;4992044;28;92192;-46
2023/12/13 09:41:00;;;;;;;;;;;5.90;90.50;;;;;;5001783;28;91968;-45
2023/12/13 09:43:26;;;;;;;;;;;5.90;90.50;;;;;;4991918;28;91640;-46
2023/12/13 09:45:53;;;;;;;;;;;5.90;90.60;;;;;;4994047;28;92148;-47
2023/12/13 09:48:22;;;;;;;;;;;5.90;90.50;;;;;;4996610;28;92911;-45
2023/12/13 09:50:57;;;;;;;;;;;5.90;90.50;;;;;;4994904;28;93850;-45
2023/12/13 09:53:24;;;;;;;;;;;5.90;90.40;;;;;;4992006;28;93283;-46
2023/12/13 09:55:50;;;;;;;;;;;5.90;90.40;;;;;;4994976;28;93560;-44
2023/12/13 09:58:16;;;;;;;;;;;5.90;90.40;;;;;;4988654;28;92247;-45
2023/12/13 10:00:43;;;;;;;;;;;6.00;90.50;;;;;;4991896;28;92895;-45
2023/12/13 10:03:08;;;;;;;;;;;6.00;90.50;;;;;;4990034;28;93633;-46
2023/12/13 10:05:36;;;;;;;;;;;6.00;90.40;;;;;;4997806;28;92085;-47
2023/12/13 10:08:03;;;;;;;;;;;5.90;90.60;;;;;;4996153;28;91784;-45
2023/12/13 10:10:31;;;;;;;;;;;6.00;90.50;;;;;;4997526;28;92490;-45
2023/12/13 10:12:58;;;;;;;;;;;6.00;90.60;;;;;;4990333;28;92043;-45
2023/12/13 10:15:27;;;;;;;;;;;6.00;90.60;;;;;;4995100;28;92980;-45
2023/12/13 10:17:53;;;;;;;;;;;6.00;90.60;;;;;;4994859;28;91976;-44
2023/12/13 10:20:19;;;;;;;;;;;6.00;90.60;;;;;;5002011;28;94585;-45
2023/12/13 10:22:44;;;;;;;;;;;6.00;90.60;;;;;;4992259;28;92625;-46
2023/12/13 10:25:10;;;;;;;;;;;6.00;90.50;;;;;;4991856;28;92261;-46
2023/12/13 10:27:36;;;;;;;;;;;6.00;90.50;;;;;;4995463;28;92849;-46
2023/12/13 10:30:01;;;;;;;;;;;6.00;90.60;;;;;;4989407;28;93562;-46
2023/12/13 10:32:27;;;;;;;;;;;6.10;90.60;;;;;;4991557;28;91253;-44
2023/12/13 10:34:53;;;;;;;;;;;6.00;90.60;;;;;;5001477;28;93877;-47
2023/12/13 10:37:19;;;;;;;;;;;6.10;90.60;;;;;;4995348;28;92455;-45
2023/12/13 10:39:46;;;;;;;;;;;6.00;90.60;;;;;;4992844;28;93125;-45
2023/12/13 10:42:15;;;;;;;;;;;6.10;90.50;;;;;;4995888;28;92462;-45
2023/12/13 10:44:41;;;;;;;;;;;6.10;90.60;;;;;;4997229;28;92051;-46
2023/12/13 10:47:07;;;;;;;;;;;6.10;90.60;;;;;;4998234;28;93017;-44
2023/12/13 10:49:34;;;;;;;;;;;6.10;90.60;;;;;;4990995;28;92561;-45
2023/12/13 10:52:00;;;;;;;;;;;6.10;90.50;;;;;;4993522;28;92076;-45
2023/12/13 10:54:27;;;;;;;;;;;6.10;90.50;;;;;;4995027;28;92162;-45
2023/12/13 10:56:53;;;;;;;;;;;6.10;90.60;;;;;;4992370;28;91416;-45
2023/12/13 10:59:19;;;;;;;;;;;6.10;90.60;;;;;;4998378;28;92138;-46
2023/12/13 11:01:46;;;;;;;;;;;6.10;90.70;;;;;;4991950;28;93262;-45
2023/12/13 11:04:21;;;;;;;;;;;6.10;90.60;;;;;;4994220;28;93027;-45
2023/12/13 11:06:47;;;;;;;;;;;6.10;90.50;;;;;;4992426;28;92762;-47
2023/12/13 11:09:17;;;;;;;;;;;6.20;90.60;;;;;;4996484;28;92677;-46
2023/12/13 11:11:43;;;;;;;;;;;6.20;90.70;;;;;;4991751;28;92408;-45
2023/12/13 11:14:10;;;;;;;;;;;6.20;90.70;;;;;;4994111;28;92046;-45
2023/12/13 11:16:39;;;;;;;;;;;6.20;90.70;;;;;;4994478;28;93396;-45
2023/12/13 11:19:05;;;;;;;;;;;6.20;90.60;;;;;;4995532;28;92069;-45
2023/12/13 11:21:32;;;;;;;;;;;6.20;90.70;;;;;;4998039;28;91666;-45
2023/12/13 11:24:07;;;;;;;;;;;6.20;90.70;;;;;;4995624;28;92148;-45
2023/12/13 11:26:33;;;;;;;;;;;6.20;90.60;;;;;;4993543;28;92731;-45
2023/12/13 11:29:00;;;;;;;;;;;6.20;90.70;;;;;;4994428;28;93422;-46
2023/12/13 11:31:25;;;;;;;;;;;6.20;90.70;;;;;;4994335;28;92104;-44
2023/12/13 11:33:54;;;;;;;;;;;6.20;90.70;;;;;;4991880;28;92837;-46
2023/12/13 11:36:21;;;;;;;;;;;6.30;90.80;;;;;;4989096;28;93243;-45
2023/12/13 11:38:48;;;;;;;;;;;6.30;90.70;;;;;;4994506;28;92050;-46
2023/12/13 11:41:14;;;;;;;;;;;6.30;90.70;;;;;;4997745;28;92028;-45
2023/12/13 11:43:41;;;;;;;;;;;6.30;90.70;;;;;;4994162;28;92527;-47
2023/12/13 11:46:07;;;;;;;;;;;6.30;90.80;;;;;;4991571;28;92953;-45
2023/12/13 11:48:32;;;;;;;;;;;6.30;90.70;;;;;;4998803;28;93556;-47
2023/12/13 11:50:58;;;;;;;;;;;6.30;90.80;;;;;;4998364;28;92750;-46
2023/12/13 11:53:23;;;;;;;;;;;6.40;90.70;;;;;;4993577;28;93406;-46
2023/12/13 11:55:49;;;;;;;;;;;6.40;90.70;;;;;;4995314;28;92549;-45
2023/12/13 11:58:15;;;;;;;;;;;6.40;90.70;;;;;;4998569;28;92507;-45
2023/12/13 12:00:42;;;;;;;;;;;6.40;91.00;;;;;;4996271;28;92859;-45
2023/12/13 12:03:08;;;;;;;;;;;6.40;90.90;;;;;;4998741;28;92539;-45
2023/12/13 12:05:34;;;;;;;;;;;6.40;90.80;;;;;;4993059;28;92131;-45
2023/12/13 12:08:01;;;;;;;;;;;6.40;90.90;;;;;;5001469;28;92498;-46
2023/12/13 12:10:28;;;;;;;;;;;6.40;90.90;;;;;;4997908;28;92882;-46
2023/12/13 12:12:54;;;;;;;;;;;6.40;90.90;;;;;;4997408;28;91976;-45
2023/12/13 12:15:20;;;;;;;;;;;6.40;90.90;;;;;;4993752;28;93311;-46
2023/12/13 12:17:45;;;;;;;;;;;6.40;91.00;;;;;;4999642;28;92971;-47
2023/12/13 12:20:12;;;;;;;;;;;6.50;91.00;;;;;;4995670;28;92705;-45
2023/12/13 12:22:38;;;;;;;;;;;6.40;90.80;;;;;;4996267;28;92851;-45
2023/12/13 12:25:04;;;;;;;;;;;6.40;91.00;;;;;;5002829;28;92161;-46
2023/12/13 12:27:30;;;;;;;;;;;6.50;91.10;;;;;;4996503;28;92580;-44
2023/12/13 12:29:55;;;;;;;;;;;6.50;91.00;;;;;;4995757;28;92212;-46
2023/12/13 12:32:21;;;;;;;;;;;6.50;91.00;;;;;;5002952;28;92123;-46
2023/12/13 12:34:47;;;;;;;;;;;6.50;91.00;;;;;;4999236;28;91746;-45
2023/12/13 12:37:14;;;;;;;;;;;6.50;91.00;;;;;;4999044;28;92168;-44
2023/12/13 12:39:40;;;;;;;;;;;6.50;91.00;;;;;;4995530;28;93080;-45
2023/12/13 12:42:06;;;;;;;;;;;6.50;91.00;;;;;;5000247;28;94196;-45
2023/12/13 12:44:32;;;;;;;;;;;6.50;91.00;;;;;;4997458;28;91967;-45
2023/12/13 12:46:57;;;;;;;;;;;6.50;91.10;;;;;;4998531;28;92535;-46
2023/12/13 12:49:23;;;;;;;;;;;6.50;91.00;;;;;;4990230;28;92896;-45
2023/12/13 12:51:48;;;;;;;;;;;6.60;91.10;;;;;;4995777;28;91986;-45
2023/12/13 12:54:14;;;;;;;;;;;6.60;91.10;;;;;;4995756;28;93583;-46
2023/12/13 12:56:39;;;;;;;;;;;6.60;91.00;;;;;;4994115;28;92258;-45
2023/12/13 12:59:07;;;;;;;;;;;6.60;91.00;;;;;;4995387;28;93151;-45
2023/12/13 13:01:33;;;;;;;;;;;6.60;91.10;;;;;;4992293;28;93666;-44
2023/12/13 13:03:59;;;;;;;;;;;6.60;91.20;;;;;;4999189;28;92045;-46
2023/12/13 13:06:25;;;;;;;;;;;6.60;91.20;;;;;;4995276;28;93910;-45
2023/12/13 13:08:50;;;;;;;;;;;6.60;91.10;;;;;;4996638;28;92442;-45
2023/12/13 13:11:16;;;;;;;;;;;6.60;91.10;;;;;;4992749;28;92725;-45
2023/12/13 13:13:42;;;;;;;;;;;6.60;91.10;;;;;;4993020;28;92726;-45
2023/12/13 13:16:08;;;;;;;;;;;6.60;91.20;;;;;;4995191;28;92448;-45
2023/12/13 13:18:33;;;;;;;;;;;6.70;91.10;;;;;;4996500;28;92020;-44
2023/12/13 13:21:00;;;;;;;;;;;6.70;91.20;;;;;;4993532;28;93879;-45
2023/12/13 13:23:25;;;;;;;;;;;6.70;91.20;;;;;;4995951;28;91957;-45
2023/12/13 13:25:51;;;;;;;;;;;6.70;91.10;;;;;;4998315;28;92095;-45
2023/12/13 13:28:17;;;;;;;;;;;6.70;91.20;;;;;;4996015;28;93742;-46
2023/12/13 13:30:43;;;;;;;;;;;6.70;91.20;;;;;;4998297;28;93093;-45
2023/12/13 13:33:10;;;;;;;;;;;6.70;91.20;;;;;;4992438;28;93502;-45
2023/12/13 13:35:36;;;;;;;;;;;6.80;91.20;;;;;;4995690;28;92814;-45
2023/12/13 13:38:02;;;;;;;;;;;6.70;91.20;;;;;;4996650;28;92718;-46
2023/12/13 13:40:27;;;;;;;;;;;6.70;91.20;;;;;;4996876;28;92450;-45
2023/12/13 13:42:53;;;;;;;;;;;6.80;91.00;;;;;;4991797;28;93162;-46
2023/12/13 13:45:18;;;;;;;;;;;6.80;91.10;;;;;;4996093;28;93068;-46
2023/12/13 13:47:44;;;;;;;;;;;6.80;91.20;;;;;;4997188;28;91674;-45
2023/12/13 13:50:09;;;;;;;;;;;6.70;91.10;;;;;;4995980;28;91914;-45
2023/12/13 13:52:35;;;;;;;;;;;6.80;91.20;;;;;;4994241;28;92090;-45
2023/12/13 13:55:01;;;;;;;;;;;6.80;91.20;;;;;;4997714;28;93170;-45
2023/12/13 13:57:26;;;;;;;;;;;6.80;91.10;;;;;;4994489;28;92736;-45
2023/12/13 13:59:52;;;;;;;;;;;6.80;91.20;;;;;;4995941;28;92618;-46
2023/12/13 14:02:32;;;;;;;;;;;6.80;91.10;;;;;;4994193;28;92194;-46
2023/12/13 14:05:00;;;;;;;;;;;6.80;91.20;;;;;;4990660;28;92689;-46
2023/12/13 14:07:26;;;;;;;;;;;6.80;91.20;;;;;;4995457;28;92554;-46
2023/12/13 14:09:51;;;;;;;;;;;6.90;91.10;;;;;;4994088;28;92848;-47
2023/12/13 14:12:17;;;;;;;;;;;6.80;91.20;;;;;;4995711;28;92327;-45
2023/12/13 14:14:42;;;;;;;;;;;6.80;91.20;;;;;;4992332;28;92004;-45
2023/12/13 14:17:09;;;;;;;;;;;6.90;91.30;;;;;;4996360;28;92205;-45
2023/12/13 14:19:34;;;;;;;;;;;6.90;91.10;;;;;;4992565;28;93761;-46
2023/12/13 14:22:02;;;;;;;;;;;6.90;91.20;;;;;;4996636;28;93773;-46
2023/12/13 14:24:27;;;;;;;;;;;6.90;91.30;;;;;;4991653;28;93037;-46